Columbia, Illinois
Current Conditions -  °F | °C
As of 1:53 PM on Thursday 29 Jan 2015 (Local Time) from KCPS Reporting Station
Overcast Overcast  
Wind Chill: 34°   Ceiling: 3100
Heat Index: 42°   Visibility: 10mi
Dew Point: 31°   Wind: 18mph
Humidity: 65%   Direction: 300°WNW
Pressure: 30.18"   Gusts: 26mph
Location:  38.44°N, 90.2°W
Report Text: KCPS 291953Z 30016G23KT 10SM OVC031 06/M01 A3018 RMK AO2 SLP220 T00561006
Loading
Personal Weather Stations






























Interactive Weather Map New forecast layout! Learn more

10-Day Weather Forecast

Advertisements
Track Severe Weather on mobile